sensor_id;sensor_type;location;lat;lon;timestamp;temperature;humidity
63875;DHT22;51595;24.180;-110.296;2022-12-05T00:01:54;25.10;99.90
63875;DHT22;51595;24.180;-110.296;2022-12-05T00:04:20;24.90;99.90
63875;DHT22;51595;24.180;-110.296;2022-12-05T00:06:47;24.80;99.90
63875;DHT22;51595;24.180;-110.296;2022-12-05T00:09:18;24.90;99.90
63875;DHT22;51595;24.180;-110.296;2022-12-05T00:11:45;24.80;99.90
63875;DHT22;51595;24.180;-110.296;2022-12-05T00:14:12;24.80;99.90
63875;DHT22;51595;24.180;-110.296;2022-12-05T00:16:40;24.80;99.90
63875;DHT22;51595;24.180;-110.296;2022-12-05T00:19:13;24.80;99.90
63875;DHT22;51595;24.180;-110.296;2022-12-05T00:21:41;24.90;99.90
63875;DHT22;51595;24.180;-110.296;2022-12-05T00:24:10;24.80;99.90
63875;DHT22;51595;24.180;-110.296;2022-12-05T00:26:37;24.80;99.90
63875;DHT22;51595;24.180;-110.296;2022-12-05T00:29:04;24.70;99.90
63875;DHT22;51595;24.180;-110.296;2022-12-05T00:31:34;24.60;99.90
63875;DHT22;51595;24.180;-110.296;2022-12-05T00:34:08;24.60;99.90
63875;DHT22;51595;24.180;-110.296;2022-12-05T00:36:35;24.50;99.90
63875;DHT22;51595;24.180;-110.296;2022-12-05T00:39:10;24.40;99.90
63875;DHT22;51595;24.180;-110.296;2022-12-05T00:41:37;24.20;99.90
63875;DHT22;51595;24.180;-110.296;2022-12-05T00:44:03;24.20;99.90
63875;DHT22;51595;24.180;-110.296;2022-12-05T00:46:31;24.10;99.90
63875;DHT22;51595;24.180;-110.296;2022-12-05T00:48:59;24.10;99.90
63875;DHT22;51595;24.180;-110.296;2022-12-05T00:51:34;24.00;99.90
63875;DHT22;51595;24.180;-110.296;2022-12-05T00:54:04;23.90;99.90
63875;DHT22;51595;24.180;-110.296;2022-12-05T00:56:31;23.80;99.90
63875;DHT22;51595;24.180;-110.296;2022-12-05T00:59:01;23.60;99.90
63875;DHT22;51595;24.180;-110.296;2022-12-05T01:01:32;23.40;99.90
63875;DHT22;51595;24.180;-110.296;2022-12-05T01:04:01;23.40;99.90
63875;DHT22;51595;24.180;-110.296;2022-12-05T01:06:28;23.40;99.90
63875;DHT22;51595;24.180;-110.296;2022-12-05T01:08:55;23.40;99.90
63875;DHT22;51595;24.180;-110.296;2022-12-05T01:11:23;23.40;99.90
63875;DHT22;51595;24.180;-110.296;2022-12-05T01:13:49;23.40;99.90
63875;DHT22;51595;24.180;-110.296;2022-12-05T01:16:22;23.20;99.90
63875;DHT22;51595;24.180;-110.296;2022-12-05T01:18:49;23.20;99.90
63875;DHT22;51595;24.180;-110.296;2022-12-05T01:21:18;23.20;99.90
63875;DHT22;51595;24.180;-110.296;2022-12-05T01:23:48;23.10;99.90
63875;DHT22;51595;24.180;-110.296;2022-12-05T01:26:19;23.10;99.90
63875;DHT22;51595;24.180;-110.296;2022-12-05T01:28:47;23.10;99.90
63875;DHT22;51595;24.180;-110.296;2022-12-05T01:31:49;23.10;99.90
63875;DHT22;51595;24.180;-110.296;2022-12-05T01:34:15;23.10;99.90
63875;DHT22;51595;24.180;-110.296;2022-12-05T01:36:42;23.20;99.90
63875;DHT22;51595;24.180;-110.296;2022-12-05T01:39:10;23.10;99.90
63875;DHT22;51595;24.180;-110.296;2022-12-05T01:41:45;23.10;99.90
63875;DHT22;51595;24.180;-110.296;2022-12-05T01:46:47;23.10;99.90
63875;DHT22;51595;24.180;-110.296;2022-12-05T01:52:20;23.10;99.90
63875;DHT22;51595;24.180;-110.296;2022-12-05T01:54:50;23.10;99.90
63875;DHT22;51595;24.180;-110.296;2022-12-05T01:57:20;23.00;99.90
63875;DHT22;51595;24.180;-110.296;2022-12-05T02:00:03;23.00;99.90
63875;DHT22;51595;24.180;-110.296;2022-12-05T02:02:32;23.00;99.90
63875;DHT22;51595;24.180;-110.296;2022-12-05T02:05:28;22.90;99.90
63875;DHT22;51595;24.180;-110.296;2022-12-05T02:07:58;22.90;99.90
63875;DHT22;51595;24.180;-110.296;2022-12-05T02:10:33;22.90;99.90
63875;DHT22;51595;24.180;-110.296;2022-12-05T02:25:02;23.00;99.90
63875;DHT22;51595;24.180;-110.296;2022-12-05T02:31:33;23.30;99.90
63875;DHT22;51595;24.180;-110.296;2022-12-05T02:34:19;23.30;99.90
63875;DHT22;51595;24.180;-110.296;2022-12-05T02:39:49;23.50;99.90
63875;DHT22;51595;24.180;-110.296;2022-12-05T02:42:35;23.60;99.90
63875;DHT22;51595;24.180;-110.296;2022-12-05T02:45:15;23.80;99.90
63875;DHT22;51595;24.180;-110.296;2022-12-05T02:47:50;23.50;99.90
63875;DHT22;51595;24.180;-110.296;2022-12-05T02:50:27;23.50;99.90
63875;DHT22;51595;24.180;-110.296;2022-12-05T02:53:04;23.50;99.90
63875;DHT22;51595;24.180;-110.296;2022-12-05T02:55:35;23.40;99.90
63875;DHT22;51595;24.180;-110.296;2022-12-05T02:58:06;23.60;99.90
63875;DHT22;51595;24.180;-110.296;2022-12-05T03:00:35;23.60;99.90
63875;DHT22;51595;24.180;-110.296;2022-12-05T03:03:13;23.50;99.90
63875;DHT22;51595;24.180;-110.296;2022-12-05T03:08:33;23.30;99.90
63875;DHT22;51595;24.180;-110.296;2022-12-05T03:11:02;23.30;99.90
63875;DHT22;51595;24.180;-110.296;2022-12-05T03:13:39;23.20;99.90
63875;DHT22;51595;24.180;-110.296;2022-12-05T03:16:11;23.20;99.90
63875;DHT22;51595;24.180;-110.296;2022-12-05T03:18:47;23.20;99.90
63875;DHT22;51595;24.180;-110.296;2022-12-05T03:24:01;23.10;99.90
63875;DHT22;51595;24.180;-110.296;2022-12-05T03:29:30;23.10;99.90
63875;DHT22;51595;24.180;-110.296;2022-12-05T03:35:06;23.10;99.90
63875;DHT22;51595;24.180;-110.296;2022-12-05T03:54:40;23.40;99.90
63875;DHT22;51595;24.180;-110.296;2022-12-05T03:57:19;23.40;99.90
63875;DHT22;51595;24.180;-110.296;2022-12-05T04:00:04;23.50;99.90
63875;DHT22;51595;24.180;-110.296;2022-12-05T04:05:09;23.60;99.90
63875;DHT22;51595;24.180;-110.296;2022-12-05T04:07:38;23.60;99.90
63875;DHT22;51595;24.180;-110.296;2022-12-05T04:10:13;23.50;99.90
63875;DHT22;51595;24.180;-110.296;2022-12-05T04:12:43;23.50;99.90
63875;DHT22;51595;24.180;-110.296;2022-12-05T04:15:18;23.50;99.90
63875;DHT22;51595;24.180;-110.296;2022-12-05T04:18:00;23.50;99.90
63875;DHT22;51595;24.180;-110.296;2022-12-05T04:20:40;23.50;99.90
63875;DHT22;51595;24.180;-110.296;2022-12-05T04:23:27;23.50;99.90
63875;DHT22;51595;24.180;-110.296;2022-12-05T04:26:14;23.40;99.90
63875;DHT22;51595;24.180;-110.296;2022-12-05T04:28:58;23.50;99.90
63875;DHT22;51595;24.180;-110.296;2022-12-05T04:31:42;23.60;99.90
63875;DHT22;51595;24.180;-110.296;2022-12-05T04:34:14;23.60;99.90
63875;DHT22;51595;24.180;-110.296;2022-12-05T04:37:09;23.60;99.90
63875;DHT22;51595;24.180;-110.296;2022-12-05T04:42:10;23.80;99.90
63875;DHT22;51595;24.180;-110.296;2022-12-05T04:45:01;23.90;99.90
63875;DHT22;51595;24.180;-110.296;2022-12-05T04:47:36;24.00;99.90
63875;DHT22;51595;24.180;-110.296;2022-12-05T04:50:06;24.00;99.90
63875;DHT22;51595;24.180;-110.296;2022-12-05T04:52:37;23.90;99.90
63875;DHT22;51595;24.180;-110.296;2022-12-05T04:55:16;23.80;99.90
63875;DHT22;51595;24.180;-110.296;2022-12-05T04:58:04;23.70;99.90
63875;DHT22;51595;24.180;-110.296;2022-12-05T05:00:34;23.60;99.90
63875;DHT22;51595;24.180;-110.296;2022-12-05T05:03:12;23.50;99.90
63875;DHT22;51595;24.180;-110.296;2022-12-05T05:05:43;23.20;99.90
63875;DHT22;51595;24.180;-110.296;2022-12-05T05:08:23;23.20;99.90
63875;DHT22;51595;24.180;-110.296;2022-12-05T05:11:15;23.10;99.90
63875;DHT22;51595;24.180;-110.296;2022-12-05T05:13:42;23.10;99.90
63875;DHT22;51595;24.180;-110.296;2022-12-05T05:16:18;23.10;99.90
63875;DHT22;51595;24.180;-110.296;2022-12-05T05:18:46;23.10;99.90
63875;DHT22;51595;24.180;-110.296;2022-12-05T05:23:47;23.10;99.90
63875;DHT22;51595;24.180;-110.296;2022-12-05T05:26:15;23.20;99.90
63875;DHT22;51595;24.180;-110.296;2022-12-05T05:28:42;23.20;99.90
63875;DHT22;51595;24.180;-110.296;2022-12-05T05:31:08;23.20;99.90
63875;DHT22;51595;24.180;-110.296;2022-12-05T05:33:35;23.20;99.90
63875;DHT22;51595;24.180;-110.296;2022-12-05T05:36:06;23.20;99.90
63875;DHT22;51595;24.180;-110.296;2022-12-05T05:38:40;23.20;99.90
63875;DHT22;51595;24.180;-110.296;2022-12-05T05:41:12;23.20;99.90
63875;DHT22;51595;24.180;-110.296;2022-12-05T05:43:40;23.20;99.90
63875;DHT22;51595;24.180;-110.296;2022-12-05T05:46:10;23.30;99.90
63875;DHT22;51595;24.180;-110.296;2022-12-05T05:48:37;23.40;99.90
63875;DHT22;51595;24.180;-110.296;2022-12-05T05:51:06;23.40;99.90
63875;DHT22;51595;24.180;-110.296;2022-12-05T05:53:34;23.50;99.90
63875;DHT22;51595;24.180;-110.296;2022-12-05T05:56:08;23.40;99.90
63875;DHT22;51595;24.180;-110.296;2022-12-05T05:58:34;23.30;99.90
63875;DHT22;51595;24.180;-110.296;2022-12-05T06:03:42;22.80;99.90
63875;DHT22;51595;24.180;-110.296;2022-12-05T06:06:29;22.80;99.90
63875;DHT22;51595;24.180;-110.296;2022-12-05T06:11:25;22.90;99.90
63875;DHT22;51595;24.180;-110.296;2022-12-05T06:13:56;22.80;99.90
63875;DHT22;51595;24.180;-110.296;2022-12-05T06:16:23;23.00;99.90
63875;DHT22;51595;24.180;-110.296;2022-12-05T06:18:51;23.00;99.90
63875;DHT22;51595;24.180;-110.296;2022-12-05T06:21:18;23.00;99.90
63875;DHT22;51595;24.180;-110.296;2022-12-05T06:23:45;23.00;99.90
63875;DHT22;51595;24.180;-110.296;2022-12-05T06:26:19;23.00;99.90
63875;DHT22;51595;24.180;-110.296;2022-12-05T06:28:49;23.10;99.90
63875;DHT22;51595;24.180;-110.296;2022-12-05T06:31:19;23.10;99.90
63875;DHT22;51595;24.180;-110.296;2022-12-05T06:33:46;23.10;99.90
63875;DHT22;51595;24.180;-110.296;2022-12-05T06:36:16;23.10;99.90
63875;DHT22;51595;24.180;-110.296;2022-12-05T06:38:43;23.10;99.90
63875;DHT22;51595;24.180;-110.296;2022-12-05T06:41:23;23.00;99.90
63875;DHT22;51595;24.180;-110.296;2022-12-05T06:43:57;23.20;99.90
63875;DHT22;51595;24.180;-110.296;2022-12-05T06:46:24;23.30;99.90
63875;DHT22;51595;24.180;-110.296;2022-12-05T06:48:55;23.30;99.90
63875;DHT22;51595;24.180;-110.296;2022-12-05T06:51:22;23.30;99.90
63875;DHT22;51595;24.180;-110.296;2022-12-05T06:53:55;23.30;99.90
63875;DHT22;51595;24.180;-110.296;2022-12-05T06:56:22;23.20;99.90
63875;DHT22;51595;24.180;-110.296;2022-12-05T06:58:49;23.30;99.90
63875;DHT22;51595;24.180;-110.296;2022-12-05T07:01:20;23.30;99.90
63875;DHT22;51595;24.180;-110.296;2022-12-05T07:04:25;23.20;99.90
63875;DHT22;51595;24.180;-110.296;2022-12-05T07:06:53;23.10;99.90
63875;DHT22;51595;24.180;-110.296;2022-12-05T07:09:23;23.10;99.90
63875;DHT22;51595;24.180;-110.296;2022-12-05T07:12:16;22.90;99.90
63875;DHT22;51595;24.180;-110.296;2022-12-05T07:14:44;22.90;99.90
63875;DHT22;51595;24.180;-110.296;2022-12-05T07:17:11;23.00;99.90
63875;DHT22;51595;24.180;-110.296;2022-12-05T07:19:42;23.00;99.90
63875;DHT22;51595;24.180;-110.296;2022-12-05T07:22:09;23.00;99.90
63875;DHT22;51595;24.180;-110.296;2022-12-05T07:24:35;23.10;99.90
63875;DHT22;51595;24.180;-110.296;2022-12-05T07:27:02;23.10;99.90
63875;DHT22;51595;24.180;-110.296;2022-12-05T07:29:28;23.10;99.90
63875;DHT22;51595;24.180;-110.296;2022-12-05T07:31:55;23.10;99.90
63875;DHT22;51595;24.180;-110.296;2022-12-05T07:34:21;23.00;99.90
63875;DHT22;51595;24.180;-110.296;2022-12-05T07:36:48;23.00;99.90
63875;DHT22;51595;24.180;-110.296;2022-12-05T07:39:14;23.00;99.90
63875;DHT22;51595;24.180;-110.296;2022-12-05T07:41:41;22.90;99.90
63875;DHT22;51595;24.180;-110.296;2022-12-05T07:44:10;22.90;99.90
63875;DHT22;51595;24.180;-110.296;2022-12-05T07:46:37;23.00;99.90
63875;DHT22;51595;24.180;-110.296;2022-12-05T07:49:04;23.00;99.90
63875;DHT22;51595;24.180;-110.296;2022-12-05T07:51:31;22.90;99.90
63875;DHT22;51595;24.180;-110.296;2022-12-05T07:53:58;22.90;99.90
63875;DHT22;51595;24.180;-110.296;2022-12-05T07:56:33;23.00;99.90
63875;DHT22;51595;24.180;-110.296;2022-12-05T07:59:00;23.00;99.90
63875;DHT22;51595;24.180;-110.296;2022-12-05T08:01:28;23.00;99.90
63875;DHT22;51595;24.180;-110.296;2022-12-05T08:03:56;23.00;99.90
63875;DHT22;51595;24.180;-110.296;2022-12-05T08:06:25;22.90;99.90
63875;DHT22;51595;24.180;-110.296;2022-12-05T08:08:52;22.80;99.90
63875;DHT22;51595;24.180;-110.296;2022-12-05T08:11:37;22.60;99.90
63875;DHT22;51595;24.180;-110.296;2022-12-05T08:14:05;22.30;99.90
63875;DHT22;51595;24.180;-110.296;2022-12-05T08:16:32;22.30;99.90
63875;DHT22;51595;24.180;-110.296;2022-12-05T08:19:01;22.30;99.90
63875;DHT22;51595;24.180;-110.296;2022-12-05T08:21:29;22.30;99.90
63875;DHT22;51595;24.180;-110.296;2022-12-05T08:23:55;22.40;99.90
63875;DHT22;51595;24.180;-110.296;2022-12-05T08:26:27;22.40;99.90
63875;DHT22;51595;24.180;-110.296;2022-12-05T08:28:59;22.40;99.90
63875;DHT22;51595;24.180;-110.296;2022-12-05T08:31:28;22.30;99.90
63875;DHT22;51595;24.180;-110.296;2022-12-05T08:33:58;22.20;99.90
63875;DHT22;51595;24.180;-110.296;2022-12-05T08:36:27;22.20;99.90
63875;DHT22;51595;24.180;-110.296;2022-12-05T08:39:00;22.30;99.90
63875;DHT22;51595;24.180;-110.296;2022-12-05T08:41:30;22.30;99.90
63875;DHT22;51595;24.180;-110.296;2022-12-05T08:43:58;22.40;99.90
63875;DHT22;51595;24.180;-110.296;2022-12-05T08:46:26;22.30;99.90
63875;DHT22;51595;24.180;-110.296;2022-12-05T08:48:52;22.30;99.90
63875;DHT22;51595;24.180;-110.296;2022-12-05T08:51:22;22.20;99.90
63875;DHT22;51595;24.180;-110.296;2022-12-05T08:53:48;22.20;99.90
63875;DHT22;51595;24.180;-110.296;2022-12-05T08:56:15;22.20;99.90
63875;DHT22;51595;24.180;-110.296;2022-12-05T08:58:42;22.30;99.90
63875;DHT22;51595;24.180;-110.296;2022-12-05T09:01:15;22.40;99.90
63875;DHT22;51595;24.180;-110.296;2022-12-05T09:03:43;22.40;99.90
63875;DHT22;51595;24.180;-110.296;2022-12-05T09:06:29;22.40;99.90
63875;DHT22;51595;24.180;-110.296;2022-12-05T09:09:01;22.40;99.90
63875;DHT22;51595;24.180;-110.296;2022-12-05T09:11:32;22.40;99.90
63875;DHT22;51595;24.180;-110.296;2022-12-05T09:14:00;22.40;99.90
63875;DHT22;51595;24.180;-110.296;2022-12-05T09:16:30;22.10;99.90
63875;DHT22;51595;24.180;-110.296;2022-12-05T09:18:57;21.70;99.90
63875;DHT22;51595;24.180;-110.296;2022-12-05T09:21:26;21.70;99.90
63875;DHT22;51595;24.180;-110.296;2022-12-05T09:23:53;21.70;99.90
63875;DHT22;51595;24.180;-110.296;2022-12-05T09:26:24;21.70;99.90
63875;DHT22;51595;24.180;-110.296;2022-12-05T09:28:51;21.70;99.90
63875;DHT22;51595;24.180;-110.296;2022-12-05T09:31:22;21.80;99.90
63875;DHT22;51595;24.180;-110.296;2022-12-05T09:33:50;22.00;99.90
63875;DHT22;51595;24.180;-110.296;2022-12-05T09:36:19;22.00;99.90
63875;DHT22;51595;24.180;-110.296;2022-12-05T09:38:46;22.00;99.90
63875;DHT22;51595;24.180;-110.296;2022-12-05T09:44:36;21.80;99.90
63875;DHT22;51595;24.180;-110.296;2022-12-05T09:47:27;21.80;99.90
63875;DHT22;51595;24.180;-110.296;2022-12-05T09:49:57;21.90;99.90
63875;DHT22;51595;24.180;-110.296;2022-12-05T09:55:23;21.80;99.90
63875;DHT22;51595;24.180;-110.296;2022-12-05T09:57:56;21.80;99.90
63875;DHT22;51595;24.180;-110.296;2022-12-05T10:00:25;21.70;99.90
63875;DHT22;51595;24.180;-110.296;2022-12-05T10:06:05;21.50;99.90
63875;DHT22;51595;24.180;-110.296;2022-12-05T10:16:55;21.60;99.90
63875;DHT22;51595;24.180;-110.296;2022-12-05T10:19:32;21.60;99.90
63875;DHT22;51595;24.180;-110.296;2022-12-05T10:22:36;21.50;99.90
63875;DHT22;51595;24.180;-110.296;2022-12-05T10:25:05;21.50;99.90
63875;DHT22;51595;24.180;-110.296;2022-12-05T10:27:44;21.50;99.90
63875;DHT22;51595;24.180;-110.296;2022-12-05T10:30:24;21.50;99.90
63875;DHT22;51595;24.180;-110.296;2022-12-05T10:33:00;21.40;99.90
63875;DHT22;51595;24.180;-110.296;2022-12-05T10:35:37;21.40;99.90
63875;DHT22;51595;24.180;-110.296;2022-12-05T10:40:42;21.40;99.90
63875;DHT22;51595;24.180;-110.296;2022-12-05T10:43:12;21.50;99.90
63875;DHT22;51595;24.180;-110.296;2022-12-05T10:45:44;21.50;99.90
63875;DHT22;51595;24.180;-110.296;2022-12-05T10:48:13;21.50;99.90
63875;DHT22;51595;24.180;-110.296;2022-12-05T10:50:42;21.50;99.90
63875;DHT22;51595;24.180;-110.296;2022-12-05T10:53:17;21.50;99.90
63875;DHT22;51595;24.180;-110.296;2022-12-05T10:55:46;21.50;99.90
63875;DHT22;51595;24.180;-110.296;2022-12-05T10:58:17;21.60;99.90
63875;DHT22;51595;24.180;-110.296;2022-12-05T11:00:55;21.60;99.90
63875;DHT22;51595;24.180;-110.296;2022-12-05T11:03:23;21.70;99.90
63875;DHT22;51595;24.180;-110.296;2022-12-05T11:05:53;21.70;99.90
63875;DHT22;51595;24.180;-110.296;2022-12-05T11:08:27;21.80;99.90
63875;DHT22;51595;24.180;-110.296;2022-12-05T11:11:05;21.90;99.90
63875;DHT22;51595;24.180;-110.296;2022-12-05T11:13:33;22.10;99.90
63875;DHT22;51595;24.180;-110.296;2022-12-05T11:16:00;22.20;99.90
63875;DHT22;51595;24.180;-110.296;2022-12-05T11:18:32;22.30;99.90
63875;DHT22;51595;24.180;-110.296;2022-12-05T11:21:13;22.40;99.90
63875;DHT22;51595;24.180;-110.296;2022-12-05T11:23:40;22.30;99.90
63875;DHT22;51595;24.180;-110.296;2022-12-05T11:26:33;22.20;99.90
63875;DHT22;51595;24.180;-110.296;2022-12-05T11:29:01;22.20;99.90
63875;DHT22;51595;24.180;-110.296;2022-12-05T11:31:29;22.00;99.90
63875;DHT22;51595;24.180;-110.296;2022-12-05T11:36:41;22.20;99.90
63875;DHT22;51595;24.180;-110.296;2022-12-05T11:39:12;22.20;99.90
63875;DHT22;51595;24.180;-110.296;2022-12-05T11:42:27;22.20;99.90
63875;DHT22;51595;24.180;-110.296;2022-12-05T11:44:54;22.10;99.90
63875;DHT22;51595;24.180;-110.296;2022-12-05T11:50:27;21.60;99.90
63875;DHT22;51595;24.180;-110.296;2022-12-05T11:53:15;21.50;99.90
63875;DHT22;51595;24.180;-110.296;2022-12-05T12:01:21;21.50;99.90
63875;DHT22;51595;24.180;-110.296;2022-12-05T12:15:15;21.40;99.90
63875;DHT22;51595;24.180;-110.296;2022-12-05T12:20:27;21.60;99.90
63875;DHT22;51595;24.180;-110.296;2022-12-05T12:33:57;21.90;99.90
63875;DHT22;51595;24.180;-110.296;2022-12-05T12:36:27;21.80;99.90
63875;DHT22;51595;24.180;-110.296;2022-12-05T12:42:10;21.70;99.90
63875;DHT22;51595;24.180;-110.296;2022-12-05T12:50:21;21.80;99.90
63875;DHT22;51595;24.180;-110.296;2022-12-05T12:59:03;21.60;99.90
63875;DHT22;51595;24.180;-110.296;2022-12-05T13:04:32;21.70;99.90
63875;DHT22;51595;24.180;-110.296;2022-12-05T13:07:19;21.70;99.90
63875;DHT22;51595;24.180;-110.296;2022-12-05T13:09:55;21.50;99.90
63875;DHT22;51595;24.180;-110.296;2022-12-05T13:12:28;21.50;99.90
63875;DHT22;51595;24.180;-110.296;2022-12-05T13:15:06;21.40;99.90
63875;DHT22;51595;24.180;-110.296;2022-12-05T13:17:39;21.40;99.90
63875;DHT22;51595;24.180;-110.296;2022-12-05T13:20:20;21.60;99.90
63875;DHT22;51595;24.180;-110.296;2022-12-05T13:22:49;21.70;99.90
63875;DHT22;51595;24.180;-110.296;2022-12-05T13:25:20;21.70;99.90
63875;DHT22;51595;24.180;-110.296;2022-12-05T13:28:04;21.80;99.90
63875;DHT22;51595;24.180;-110.296;2022-12-05T13:30:32;21.90;99.90
63875;DHT22;51595;24.180;-110.296;2022-12-05T13:33:21;21.90;99.90
63875;DHT22;51595;24.180;-110.296;2022-12-05T13:35:55;21.90;99.90
63875;DHT22;51595;24.180;-110.296;2022-12-05T13:38:40;22.00;99.90
63875;DHT22;51595;24.180;-110.296;2022-12-05T13:41:38;22.00;99.90
63875;DHT22;51595;24.180;-110.296;2022-12-05T13:44:39;21.90;99.90
63875;DHT22;51595;24.180;-110.296;2022-12-05T13:47:16;22.00;99.90
63875;DHT22;51595;24.180;-110.296;2022-12-05T13:50:00;22.00;99.90
63875;DHT22;51595;24.180;-110.296;2022-12-05T13:52:30;21.90;99.90
63875;DHT22;51595;24.180;-110.296;2022-12-05T13:55:28;21.90;99.90
63875;DHT22;51595;24.180;-110.296;2022-12-05T13:57:56;21.80;99.90
63875;DHT22;51595;24.180;-110.296;2022-12-05T14:00:29;21.90;99.90
63875;DHT22;51595;24.180;-110.296;2022-12-05T14:02:59;21.90;99.90
63875;DHT22;51595;24.180;-110.296;2022-12-05T14:05:44;21.90;99.90
63875;DHT22;51595;24.180;-110.296;2022-12-05T14:15:51;22.20;99.90
63875;DHT22;51595;24.180;-110.296;2022-12-05T14:18:57;22.30;99.90
63875;DHT22;51595;24.180;-110.296;2022-12-05T14:24:51;22.60;99.90
63875;DHT22;51595;24.180;-110.296;2022-12-05T14:30:21;22.70;99.90
63875;DHT22;51595;24.180;-110.296;2022-12-05T14:32:50;23.30;99.90
63875;DHT22;51595;24.180;-110.296;2022-12-05T14:35:29;23.70;99.90
63875;DHT22;51595;24.180;-110.296;2022-12-05T14:38:31;23.70;99.90
63875;DHT22;51595;24.180;-110.296;2022-12-05T14:41:30;23.50;99.90
63875;DHT22;51595;24.180;-110.296;2022-12-05T14:43:58;23.10;99.90
63875;DHT22;51595;24.180;-110.296;2022-12-05T14:46:29;23.00;99.90
63875;DHT22;51595;24.180;-110.296;2022-12-05T14:48:57;23.00;99.90
63875;DHT22;51595;24.180;-110.296;2022-12-05T14:51:42;23.00;99.90
63875;DHT22;51595;24.180;-110.296;2022-12-05T14:54:15;23.00;99.90
63875;DHT22;51595;24.180;-110.296;2022-12-05T14:56:59;23.10;99.90
63875;DHT22;51595;24.180;-110.296;2022-12-05T14:59:42;23.20;99.90
63875;DHT22;51595;24.180;-110.296;2022-12-05T15:02:29;23.40;99.90
63875;DHT22;51595;24.180;-110.296;2022-12-05T15:07:34;23.60;99.90
63875;DHT22;51595;24.180;-110.296;2022-12-05T15:10:03;23.50;99.90
63875;DHT22;51595;24.180;-110.296;2022-12-05T15:12:59;23.40;99.90
63875;DHT22;51595;24.180;-110.296;2022-12-05T15:15:40;23.70;99.90
63875;DHT22;51595;24.180;-110.296;2022-12-05T15:20:51;24.10;99.90
63875;DHT22;51595;24.180;-110.296;2022-12-05T15:26:38;25.00;99.90
63875;DHT22;51595;24.180;-110.296;2022-12-05T15:29:12;25.30;99.90
63875;DHT22;51595;24.180;-110.296;2022-12-05T15:31:44;25.20;99.90
63875;DHT22;51595;24.180;-110.296;2022-12-05T15:42:39;24.70;99.90
63875;DHT22;51595;24.180;-110.296;2022-12-05T15:45:29;24.80;99.90
63875;DHT22;51595;24.180;-110.296;2022-12-05T15:48:11;25.00;99.90
63875;DHT22;51595;24.180;-110.296;2022-12-05T15:50:42;25.00;99.90
63875;DHT22;51595;24.180;-110.296;2022-12-05T15:58:46;25.20;99.90
63875;DHT22;51595;24.180;-110.296;2022-12-05T16:01:20;25.50;99.90
63875;DHT22;51595;24.180;-110.296;2022-12-05T16:06:27;25.70;99.90
63875;DHT22;51595;24.180;-110.296;2022-12-05T16:08:54;26.00;99.90
63875;DHT22;51595;24.180;-110.296;2022-12-05T16:11:22;26.50;99.90
63875;DHT22;51595;24.180;-110.296;2022-12-05T16:13:57;26.40;99.90
63875;DHT22;51595;24.180;-110.296;2022-12-05T16:16:28;26.50;99.90
63875;DHT22;51595;24.180;-110.296;2022-12-05T16:19:10;26.60;99.90
63875;DHT22;51595;24.180;-110.296;2022-12-05T16:21:45;26.20;99.90
63875;DHT22;51595;24.180;-110.296;2022-12-05T16:24:20;26.30;99.90
63875;DHT22;51595;24.180;-110.296;2022-12-05T16:26:58;26.50;99.90
63875;DHT22;51595;24.180;-110.296;2022-12-05T16:29:27;26.60;99.90
63875;DHT22;51595;24.180;-110.296;2022-12-05T16:31:58;26.80;99.90
63875;DHT22;51595;24.180;-110.296;2022-12-05T16:34:27;27.00;99.90
63875;DHT22;51595;24.180;-110.296;2022-12-05T16:36:55;27.30;99.90
63875;DHT22;51595;24.180;-110.296;2022-12-05T16:39:23;27.70;99.90
63875;DHT22;51595;24.180;-110.296;2022-12-05T16:41:50;27.50;99.90
63875;DHT22;51595;24.180;-110.296;2022-12-05T16:46:57;28.00;99.90
63875;DHT22;51595;24.180;-110.296;2022-12-05T16:49:32;28.20;99.90
63875;DHT22;51595;24.180;-110.296;2022-12-05T16:54:29;28.80;99.90
63875;DHT22;51595;24.180;-110.296;2022-12-05T16:56:55;28.60;99.90
63875;DHT22;51595;24.180;-110.296;2022-12-05T16:59:34;28.20;99.90
63875;DHT22;51595;24.180;-110.296;2022-12-05T17:02:09;28.00;99.90
63875;DHT22;51595;24.180;-110.296;2022-12-05T17:04:42;28.30;99.90
63875;DHT22;51595;24.180;-110.296;2022-12-05T17:07:11;28.70;99.90
63875;DHT22;51595;24.180;-110.296;2022-12-05T17:09:38;29.00;99.90
63875;DHT22;51595;24.180;-110.296;2022-12-05T17:12:20;28.70;99.90
63875;DHT22;51595;24.180;-110.296;2022-12-05T17:14:47;28.60;99.90
63875;DHT22;51595;24.180;-110.296;2022-12-05T17:17:14;29.20;99.90
63875;DHT22;51595;24.180;-110.296;2022-12-05T17:19:43;29.90;99.90
63875;DHT22;51595;24.180;-110.296;2022-12-05T17:22:12;29.80;99.90
63875;DHT22;51595;24.180;-110.296;2022-12-05T17:24:39;29.90;99.90
63875;DHT22;51595;24.180;-110.296;2022-12-05T17:27:09;29.80;99.90
63875;DHT22;51595;24.180;-110.296;2022-12-05T17:29:48;29.40;99.90
63875;DHT22;51595;24.180;-110.296;2022-12-05T17:32:18;28.80;99.90
63875;DHT22;51595;24.180;-110.296;2022-12-05T17:34:47;29.20;99.90
63875;DHT22;51595;24.180;-110.296;2022-12-05T17:37:19;29.50;99.90
63875;DHT22;51595;24.180;-110.296;2022-12-05T17:39:45;29.40;99.90
63875;DHT22;51595;24.180;-110.296;2022-12-05T17:42:11;29.50;99.90
63875;DHT22;51595;24.180;-110.296;2022-12-05T17:44:38;29.60;99.90
63875;DHT22;51595;24.180;-110.296;2022-12-05T17:47:08;29.20;99.90
63875;DHT22;51595;24.180;-110.296;2022-12-05T17:49:37;29.40;99.90
63875;DHT22;51595;24.180;-110.296;2022-12-05T17:52:03;29.80;99.90
63875;DHT22;51595;24.180;-110.296;2022-12-05T17:54:31;30.20;99.90
63875;DHT22;51595;24.180;-110.296;2022-12-05T17:56:59;30.50;99.90
63875;DHT22;51595;24.180;-110.296;2022-12-05T17:59:26;30.70;99.90
63875;DHT22;51595;24.180;-110.296;2022-12-05T18:01:52;30.30;99.90
63875;DHT22;51595;24.180;-110.296;2022-12-05T18:04:19;29.50;99.90
63875;DHT22;51595;24.180;-110.296;2022-12-05T18:06:45;29.40;99.90
63875;DHT22;51595;24.180;-110.296;2022-12-05T18:09:11;29.30;99.90
63875;DHT22;51595;24.180;-110.296;2022-12-05T18:11:38;29.00;99.90
63875;DHT22;51595;24.180;-110.296;2022-12-05T18:14:06;30.00;99.90
63875;DHT22;51595;24.180;-110.296;2022-12-05T18:16:35;29.40;99.90
63875;DHT22;51595;24.180;-110.296;2022-12-05T18:19:02;29.80;99.90
63875;DHT22;51595;24.180;-110.296;2022-12-05T18:21:28;29.80;99.90
63875;DHT22;51595;24.180;-110.296;2022-12-05T18:23:56;29.80;99.90
63875;DHT22;51595;24.180;-110.296;2022-12-05T18:26:22;29.20;99.90